createdAt,value
2018-07-10T00:02:35.488Z,18.00
2018-07-10T00:07:22.246Z,18.00
2018-07-10T00:11:02.251Z,18.00
2018-07-10T00:13:29.555Z,17.90
2018-07-10T00:15:56.793Z,17.80
2018-07-10T00:18:24.080Z,17.80
2018-07-10T00:20:51.369Z,17.70
2018-07-10T00:23:18.664Z,17.70
2018-07-10T00:25:45.920Z,17.60
2018-07-10T00:28:13.205Z,17.50
2018-07-10T00:30:40.511Z,17.40
2018-07-10T00:33:07.764Z,17.30
2018-07-10T00:35:35.060Z,17.30
2018-07-10T00:38:13.760Z,17.30
2018-07-10T00:40:41.034Z,17.20
2018-07-10T00:43:10.304Z,17.20
2018-07-10T00:45:37.682Z,17.20
2018-07-10T00:48:05.128Z,17.20
2018-07-10T00:50:32.709Z,17.10
2018-07-10T00:52:59.994Z,17.10
2018-07-10T00:57:54.506Z,17.10
2018-07-10T01:00:31.141Z,17.10
2018-07-10T01:02:58.752Z,17.00
2018-07-10T01:05:26.024Z,17.00
2018-07-10T01:07:53.369Z,17.00
2018-07-10T01:10:20.589Z,17.00
2018-07-10T01:12:47.837Z,17.00
2018-07-10T01:15:15.087Z,17.00
2018-07-10T01:17:42.349Z,17.00
2018-07-10T01:20:09.645Z,16.90
2018-07-10T01:22:36.872Z,16.90
2018-07-10T01:25:04.149Z,16.90
2018-07-10T01:27:31.386Z,16.90
2018-07-10T01:29:58.681Z,16.90
2018-07-10T01:32:25.962Z,16.90
2018-07-10T01:34:53.221Z,16.80
2018-07-10T01:37:20.435Z,16.80
2018-07-10T01:39:47.655Z,16.70
2018-07-10T01:42:14.867Z,16.60
2018-07-10T01:44:42.071Z,16.60
2018-07-10T01:47:09.280Z,16.50
2018-07-10T01:49:36.499Z,16.40
2018-07-10T01:52:03.715Z,16.30
2018-07-10T01:54:30.920Z,16.30
2018-07-10T01:56:58.143Z,16.30
2018-07-10T01:59:25.357Z,16.20
2018-07-10T02:01:52.570Z,16.20
2018-07-10T02:04:19.801Z,16.20
2018-07-10T02:06:47.009Z,16.10
2018-07-10T02:09:14.225Z,16.00
2018-07-10T02:11:41.446Z,16.00
2018-07-10T02:14:08.785Z,15.90
2018-07-10T02:16:35.929Z,15.80
2018-07-10T02:19:03.176Z,15.60
2018-07-10T02:21:30.437Z,15.60
2018-07-10T02:23:57.673Z,15.50
2018-07-10T02:26:25.972Z,15.50
2018-07-10T02:28:53.821Z,15.40
2018-07-10T02:31:21.089Z,15.40
2018-07-10T02:33:48.764Z,15.40
2018-07-10T02:36:16.644Z,15.40
2018-07-10T02:38:47.207Z,15.30
2018-07-10T02:41:16.397Z,15.30
2018-07-10T02:43:49.672Z,15.30
2018-07-10T02:46:16.921Z,15.30
2018-07-10T02:48:44.158Z,15.30
2018-07-10T02:53:40.917Z,15.30
2018-07-10T02:56:10.200Z,15.40
2018-07-10T02:58:37.417Z,15.40
2018-07-10T03:01:05.351Z,15.40
2018-07-10T03:03:33.357Z,15.40
2018-07-10T03:06:00.799Z,15.40
2018-07-10T03:08:28.022Z,15.40
2018-07-10T03:10:57.949Z,15.30
2018-07-10T03:13:27.841Z,15.30
2018-07-10T03:15:57.294Z,15.30
2018-07-10T03:18:28.903Z,15.30
2018-07-10T03:20:57.946Z,15.30
2018-07-10T03:23:27.951Z,15.30
2018-07-10T03:25:57.580Z,15.30
2018-07-10T03:28:27.681Z,15.30
2018-07-10T03:30:54.931Z,15.30
2018-07-10T03:33:22.165Z,15.30
2018-07-10T03:35:49.393Z,15.30
2018-07-10T03:38:16.625Z,15.30
2018-07-10T03:40:43.829Z,15.40
2018-07-10T03:43:11.045Z,15.40
2018-07-10T03:45:38.256Z,15.30
2018-07-10T03:48:05.469Z,15.40
2018-07-10T03:50:32.681Z,15.30
2018-07-10T03:52:59.897Z,15.30
2018-07-10T03:55:27.161Z,15.30
2018-07-10T03:57:56.515Z,15.30
2018-07-10T04:00:24.806Z,15.30
2018-07-10T04:02:52.548Z,15.30
2018-07-10T04:05:21.076Z,15.40
2018-07-10T04:07:49.181Z,15.40
2018-07-10T04:10:16.839Z,15.50
2018-07-10T04:12:46.314Z,15.50
2018-07-10T04:15:13.553Z,15.60
2018-07-10T04:17:45.215Z,15.70
2018-07-10T04:20:15.224Z,15.80
2018-07-10T04:22:42.514Z,15.80
2018-07-10T04:25:09.752Z,15.90
2018-07-10T04:27:57.605Z,15.90
2018-07-10T04:30:42.160Z,15.90
2018-07-10T04:33:09.392Z,15.90
2018-07-10T04:35:36.628Z,16.00
2018-07-10T04:38:04.173Z,16.00
2018-07-10T04:40:32.625Z,16.10
2018-07-10T04:43:01.048Z,16.20
2018-07-10T04:45:41.225Z,16.20
2018-07-10T04:48:13.708Z,16.20
2018-07-10T04:50:47.229Z,16.30
2018-07-10T04:53:33.896Z,16.40
2018-07-10T04:56:01.137Z,16.40
2018-07-10T04:58:28.381Z,16.40
2018-07-10T05:00:57.782Z,16.40
2018-07-10T05:03:25.585Z,16.40
2018-07-10T05:05:52.916Z,16.40
2018-07-10T05:08:20.697Z,16.40
2018-07-10T05:10:48.920Z,16.40
2018-07-10T05:13:16.169Z,16.40
2018-07-10T05:15:47.010Z,16.50
2018-07-10T05:18:14.220Z,16.60
2018-07-10T05:20:43.072Z,16.70
2018-07-10T05:23:12.139Z,16.80
2018-07-10T05:25:40.377Z,17.00
2018-07-10T05:28:07.609Z,17.20
2018-07-10T05:30:35.429Z,17.40
2018-07-10T05:33:02.664Z,17.50
2018-07-10T05:35:29.934Z,17.50
2018-07-10T05:37:59.552Z,17.70
2018-07-10T05:40:26.795Z,17.90
2018-07-10T05:42:54.029Z,18.00
2018-07-10T05:45:23.199Z,18.00
2018-07-10T05:47:53.939Z,18.20
2018-07-10T05:50:21.183Z,18.20
2018-07-10T05:52:48.535Z,18.20
2018-07-10T05:55:20.574Z,18.30
2018-07-10T05:57:47.805Z,18.10
2018-07-10T06:00:15.028Z,18.00
2018-07-10T06:02:42.218Z,18.10
2018-07-10T06:05:09.961Z,18.10
2018-07-10T06:07:37.198Z,18.20
2018-07-10T06:10:04.786Z,18.30
2018-07-10T06:12:32.017Z,18.20
2018-07-10T06:14:59.263Z,18.20
2018-07-10T06:17:28.389Z,18.40
2018-07-10T06:19:55.634Z,18.30
2018-07-10T06:22:24.179Z,18.20
2018-07-10T06:24:51.932Z,18.20
2018-07-10T06:27:22.878Z,18.20
2018-07-10T06:29:55.769Z,18.00
2018-07-10T06:32:23.146Z,18.10
2018-07-10T06:34:56.153Z,18.10
2018-07-10T06:37:30.005Z,18.10
2018-07-10T06:39:58.149Z,18.00
2018-07-10T06:42:28.603Z,17.90
2018-07-10T06:44:56.470Z,17.80
2018-07-10T06:47:27.678Z,17.80
2018-07-10T06:49:54.934Z,17.80
2018-07-10T06:52:22.666Z,17.80
2018-07-10T06:54:53.730Z,17.90
2018-07-10T06:57:27.526Z,18.00
2018-07-10T06:59:55.106Z,17.90
2018-07-10T07:02:22.325Z,17.90
2018-07-10T07:04:49.532Z,17.90
2018-07-10T07:07:16.710Z,17.80
2018-07-10T07:09:43.873Z,17.80
2018-07-10T07:12:11.852Z,17.80
2018-07-10T07:14:39.061Z,17.90
2018-07-10T07:17:06.265Z,17.90
2018-07-10T07:19:33.472Z,18.10
2018-07-10T07:22:00.663Z,18.20
2018-07-10T07:24:27.857Z,18.30
2018-07-10T07:26:55.033Z,18.20
2018-07-10T07:29:22.250Z,18.30
2018-07-10T07:31:49.525Z,18.20
2018-07-10T07:34:16.704Z,18.00
2018-07-10T07:36:43.911Z,17.80
2018-07-10T07:39:11.121Z,17.60
2018-07-10T07:41:38.335Z,17.30
2018-07-10T07:44:05.650Z,16.90
2018-07-10T07:46:32.753Z,16.70
2018-07-10T07:48:59.973Z,16.50
2018-07-10T07:51:27.180Z,16.50
2018-07-10T07:53:54.392Z,16.50
2018-07-10T07:56:21.613Z,16.50
2018-07-10T07:58:48.825Z,16.60
2018-07-10T08:01:16.072Z,16.40
2018-07-10T08:03:43.300Z,16.30
2018-07-10T08:06:11.100Z,16.10
2018-07-10T08:08:38.358Z,16.00
2018-07-10T08:11:05.973Z,16.10
2018-07-10T08:13:33.216Z,16.00
2018-07-10T08:16:00.623Z,16.10
2018-07-10T08:18:27.862Z,16.40
2018-07-10T08:20:55.257Z,16.60
2018-07-10T08:23:22.501Z,16.80
2018-07-10T08:25:49.743Z,17.10
2018-07-10T08:28:16.996Z,17.50
2018-07-10T08:30:44.226Z,17.80
2018-07-10T08:33:11.486Z,18.10
2018-07-10T08:35:38.725Z,18.10
2018-07-10T08:38:05.990Z,18.40
2018-07-10T08:40:33.254Z,18.70
2018-07-10T08:43:00.541Z,19.00
2018-07-10T08:45:27.778Z,19.10
2018-07-10T08:47:56.389Z,19.30
2018-07-10T08:50:23.634Z,19.40
2018-07-10T08:52:51.119Z,19.30
2018-07-10T08:55:18.368Z,19.40
2018-07-10T08:57:45.637Z,19.70
2018-07-10T09:00:12.881Z,19.90
2018-07-10T09:02:40.296Z,20.90
2018-07-10T09:05:07.529Z,21.40
2018-07-10T09:07:34.782Z,22.60
2018-07-10T09:10:02.049Z,24.30
2018-07-10T09:12:29.284Z,24.80
2018-07-10T09:14:56.520Z,25.90
2018-07-10T09:17:23.757Z,25.60
2018-07-10T09:19:50.995Z,24.40
2018-07-10T09:22:18.245Z,23.60
2018-07-10T09:24:48.275Z,22.60
2018-07-10T09:27:17.650Z,21.90
2018-07-10T09:29:45.308Z,21.10
2018-07-10T09:32:12.553Z,21.20
2018-07-10T09:34:39.772Z,22.20
2018-07-10T09:37:13.592Z,23.70
2018-07-10T09:39:40.829Z,24.80
2018-07-10T09:42:08.066Z,23.10
2018-07-10T09:44:35.352Z,21.50
2018-07-10T09:47:02.655Z,20.00
2018-07-10T09:49:29.850Z,19.20
2018-07-10T09:51:57.097Z,18.80
2018-07-10T09:54:24.338Z,18.40
2018-07-10T09:56:51.546Z,18.20
2018-07-10T09:59:18.769Z,18.40
2018-07-10T10:01:46.104Z,18.60
2018-07-10T10:04:13.293Z,18.60
2018-07-10T10:06:40.520Z,19.10
2018-07-10T10:09:07.741Z,19.90
2018-07-10T10:11:34.948Z,21.20
2018-07-10T10:14:02.187Z,22.30
2018-07-10T10:16:29.398Z,22.60
2018-07-10T10:18:57.997Z,22.50
2018-07-10T10:21:26.148Z,22.00
2018-07-10T10:23:54.250Z,23.00
2018-07-10T10:26:21.456Z,24.90
2018-07-10T10:28:48.988Z,26.30
2018-07-10T10:31:16.205Z,26.20
2018-07-10T10:33:43.421Z,27.00
2018-07-10T10:36:10.630Z,26.30
2018-07-10T10:38:39.221Z,25.10
2018-07-10T10:41:06.428Z,23.80
2018-07-10T10:43:33.640Z,23.30
2018-07-10T10:46:00.849Z,23.00
2018-07-10T10:48:28.069Z,22.80
2018-07-10T10:50:55.285Z,22.60
2018-07-10T10:53:22.477Z,22.70
2018-07-10T10:55:49.688Z,22.40
2018-07-10T10:58:18.022Z,21.60
2018-07-10T11:00:45.234Z,21.00
2018-07-10T11:03:12.431Z,20.90
2018-07-10T11:05:39.657Z,20.80
2018-07-10T11:08:07.252Z,20.90
2018-07-10T11:10:34.513Z,20.80
2018-07-10T11:13:01.730Z,20.30
2018-07-10T11:15:29.030Z,19.90
2018-07-10T11:18:03.802Z,19.70
2018-07-10T11:20:38.753Z,19.70
2018-07-10T11:23:07.340Z,19.80
2018-07-10T11:25:39.796Z,19.60
2018-07-10T11:28:09.038Z,19.30
2018-07-10T11:30:36.606Z,19.00
2018-07-10T11:33:05.620Z,18.90
2018-07-10T11:35:33.402Z,18.70
2018-07-10T11:38:02.189Z,18.50
2018-07-10T11:40:29.885Z,18.20
2018-07-10T11:42:57.086Z,17.90
2018-07-10T11:45:24.304Z,17.60
2018-07-10T11:47:51.572Z,17.40
2018-07-10T11:50:18.936Z,17.30
2018-07-10T11:52:46.136Z,17.10
2018-07-10T11:55:13.346Z,17.00
2018-07-10T11:57:40.925Z,17.00
2018-07-10T12:00:08.169Z,17.00
2018-07-10T12:02:41.297Z,17.10
2018-07-10T12:05:08.506Z,17.10
2018-07-10T12:07:36.231Z,17.40
2018-07-10T12:10:15.490Z,17.70
2018-07-10T12:12:42.779Z,18.00
2018-07-10T12:15:09.949Z,18.40
2018-07-10T12:17:37.160Z,19.00
2018-07-10T12:20:04.370Z,19.60
2018-07-10T12:22:32.421Z,21.50
2018-07-10T12:24:59.634Z,23.50
2018-07-10T12:27:26.849Z,23.80
2018-07-10T12:29:54.084Z,23.40
2018-07-10T12:32:21.308Z,24.70
2018-07-10T12:34:48.582Z,25.90
2018-07-10T12:37:15.765Z,26.60
2018-07-10T12:39:43.169Z,27.30
2018-07-10T12:42:10.380Z,27.50
2018-07-10T12:44:37.573Z,26.30
2018-07-10T12:47:04.774Z,25.10
2018-07-10T12:49:32.029Z,23.80
2018-07-10T12:51:59.194Z,23.80
2018-07-10T12:54:26.407Z,23.70
2018-07-10T12:56:53.655Z,24.40
2018-07-10T12:59:20.893Z,24.40
2018-07-10T13:01:48.154Z,23.70
2018-07-10T13:04:15.392Z,23.80
2018-07-10T13:06:42.610Z,23.20
2018-07-10T13:09:09.821Z,23.00
2018-07-10T13:11:37.073Z,22.30
2018-07-10T13:14:04.321Z,21.50
2018-07-10T13:16:31.564Z,21.50
2018-07-10T13:18:58.811Z,22.00
2018-07-10T13:21:26.066Z,22.70
2018-07-10T13:23:53.294Z,22.90
2018-07-10T13:26:20.545Z,23.50
2018-07-10T13:28:47.790Z,24.50
2018-07-10T13:33:42.262Z,23.10
2018-07-10T13:36:09.499Z,23.90
2018-07-10T13:38:36.733Z,24.00
2018-07-10T13:41:03.978Z,24.10
2018-07-10T13:43:31.218Z,23.70
2018-07-10T13:45:58.432Z,22.90
2018-07-10T13:48:25.672Z,22.40
2018-07-10T13:50:52.922Z,22.00
2018-07-10T13:53:20.144Z,22.50
2018-07-10T13:55:47.377Z,23.10
2018-07-10T13:58:22.201Z,22.00
2018-07-10T14:00:53.281Z,21.60
2018-07-10T14:03:20.724Z,21.60
2018-07-10T14:05:47.923Z,21.80
2018-07-10T14:08:15.172Z,22.00
2018-07-10T14:10:42.401Z,22.50
2018-07-10T14:13:09.637Z,22.40
2018-07-10T14:15:36.897Z,22.30
2018-07-10T14:18:04.533Z,23.10
2018-07-10T14:20:38.196Z,23.20
2018-07-10T14:23:05.445Z,22.50
2018-07-10T14:28:00.146Z,22.10
2018-07-10T14:30:27.481Z,21.70
2018-07-10T14:32:54.717Z,22.40
2018-07-10T14:35:21.961Z,23.30
2018-07-10T14:37:49.214Z,24.10
2018-07-10T14:40:16.482Z,23.50
2018-07-10T14:42:43.725Z,23.00
2018-07-10T14:45:10.967Z,22.30
2018-07-10T14:47:38.217Z,22.00
2018-07-10T14:50:05.461Z,21.60
2018-07-10T14:54:59.893Z,22.60
2018-07-10T14:57:27.106Z,23.80
2018-07-10T14:59:54.321Z,24.10
2018-07-10T15:02:21.561Z,24.10
2018-07-10T15:04:48.764Z,24.60
2018-07-10T15:07:16.012Z,24.40
2018-07-10T15:09:43.222Z,22.90
2018-07-10T15:12:10.419Z,22.70
2018-07-10T15:14:37.792Z,23.20
2018-07-10T15:17:10.596Z,22.80
2018-07-10T15:19:37.871Z,21.80
2018-07-10T15:22:05.076Z,22.40
2018-07-10T15:24:32.279Z,22.30
2018-07-10T15:26:59.492Z,22.20
2018-07-10T15:29:28.209Z,22.60
2018-07-10T15:31:55.821Z,22.90
2018-07-10T15:34:23.068Z,22.50
2018-07-10T15:36:50.256Z,22.70
2018-07-10T15:39:17.974Z,22.60
2018-07-10T15:41:45.212Z,22.40
2018-07-10T15:44:12.396Z,22.10
2018-07-10T15:46:39.624Z,22.20
2018-07-10T15:49:06.841Z,21.60
2018-07-10T15:51:34.050Z,21.50
2018-07-10T15:54:01.269Z,21.50
2018-07-10T15:56:28.506Z,21.70
2018-07-10T15:58:55.729Z,21.90
2018-07-10T16:01:22.940Z,22.70
2018-07-10T16:03:50.172Z,22.90
2018-07-10T16:06:17.445Z,22.60
2018-07-10T16:08:45.155Z,22.60
2018-07-10T16:11:12.365Z,23.00
2018-07-10T16:13:41.940Z,23.10
2018-07-10T16:16:18.713Z,22.30
2018-07-10T16:18:51.506Z,21.70
2018-07-10T16:21:18.777Z,21.80
2018-07-10T16:23:46.021Z,21.90
2018-07-10T16:26:22.745Z,22.10
2018-07-10T16:28:50.797Z,22.10
2018-07-10T16:31:19.043Z,21.80
2018-07-10T16:33:46.265Z,21.80
2018-07-10T16:36:13.753Z,22.30
2018-07-10T16:38:41.824Z,22.10
2018-07-10T16:41:17.124Z,22.40
2018-07-10T16:43:44.374Z,22.40
2018-07-10T16:46:12.153Z,22.30
2018-07-10T16:48:48.152Z,22.30
2018-07-10T16:51:25.598Z,22.30
2018-07-10T16:53:56.555Z,21.70
2018-07-10T16:56:24.192Z,20.60
2018-07-10T16:58:52.461Z,19.90
2018-07-10T17:01:19.686Z,19.50
2018-07-10T17:03:46.893Z,19.30
2018-07-10T17:06:14.270Z,19.30
2018-07-10T17:08:41.573Z,19.30
2018-07-10T17:11:08.777Z,19.90
2018-07-10T17:13:36.045Z,20.60
2018-07-10T17:16:03.345Z,21.30
2018-07-10T17:18:30.773Z,21.70
2018-07-10T17:20:58.157Z,21.90
2018-07-10T17:23:25.372Z,21.50
2018-07-10T17:25:52.935Z,20.90
2018-07-10T17:28:20.144Z,20.10
2018-07-10T17:33:14.842Z,19.80
2018-07-10T17:35:42.052Z,19.70
2018-07-10T17:38:09.258Z,19.40
2018-07-10T17:40:37.267Z,19.10
2018-07-10T17:43:04.589Z,18.90
2018-07-10T17:45:31.921Z,18.60
2018-07-10T17:47:59.927Z,18.30
2018-07-10T17:50:27.150Z,18.10
2018-07-10T17:52:54.874Z,18.00
2018-07-10T17:55:23.044Z,18.00
2018-07-10T17:57:53.576Z,18.00
2018-07-10T18:00:20.813Z,18.00
2018-07-10T18:05:15.327Z,18.10
2018-07-10T18:07:42.502Z,18.10
2018-07-10T18:10:09.741Z,18.00
2018-07-10T18:12:36.966Z,17.80
2018-07-10T18:15:04.425Z,17.80
2018-07-10T18:17:31.649Z,17.60
2018-07-10T18:19:58.931Z,17.50
2018-07-10T18:22:26.165Z,17.40
2018-07-10T18:24:53.381Z,17.20
2018-07-10T18:27:20.621Z,17.20
2018-07-10T18:29:47.921Z,17.10
2018-07-10T18:32:15.131Z,17.00
2018-07-10T18:34:42.345Z,16.90
2018-07-10T18:37:09.660Z,16.80
2018-07-10T18:39:36.862Z,16.70
2018-07-10T18:42:04.130Z,16.60
2018-07-10T18:44:31.585Z,16.60
2018-07-10T18:46:58.813Z,16.60
2018-07-10T18:49:26.017Z,16.50
2018-07-10T18:54:29.045Z,16.30
2018-07-10T18:56:56.360Z,16.30
2018-07-10T18:59:24.985Z,16.20
2018-07-10T19:01:59.235Z,16.20
2018-07-10T19:04:38.445Z,16.10
2018-07-10T19:07:05.786Z,16.00
2018-07-10T19:09:34.301Z,15.90
2018-07-10T19:12:03.413Z,15.80
2018-07-10T19:14:30.685Z,15.80
2018-07-10T19:16:57.956Z,15.80
2018-07-10T19:19:25.199Z,15.70
2018-07-10T19:21:55.432Z,15.70
2018-07-10T19:24:24.452Z,15.70
2018-07-10T19:26:51.749Z,15.80
2018-07-10T19:29:22.164Z,15.80
2018-07-10T19:31:49.961Z,15.70
2018-07-10T19:34:17.290Z,15.70
2018-07-10T19:36:44.544Z,15.60
2018-07-10T19:39:11.833Z,15.60
2018-07-10T19:41:39.117Z,15.60
2018-07-10T19:44:06.362Z,15.50
2018-07-10T19:46:34.937Z,15.40
2018-07-10T19:49:03.918Z,15.30
2018-07-10T19:51:31.154Z,15.10
2018-07-10T19:54:14.849Z,15.10
2018-07-10T19:56:42.101Z,14.90
2018-07-10T19:59:10.836Z,14.80
2018-07-10T20:01:56.212Z,14.70
2018-07-10T20:04:27.596Z,14.70
2018-07-10T20:07:59.501Z,14.50
2018-07-10T20:13:06.482Z,14.30
2018-07-10T20:15:38.669Z,14.20
2018-07-10T20:20:18.011Z,14.10
2018-07-10T20:22:50.353Z,14.00
2018-07-10T20:27:37.685Z,13.90
2018-07-10T20:30:19.048Z,13.80
2018-07-10T20:33:03.252Z,13.80
2018-07-10T20:35:31.527Z,13.70
2018-07-10T20:37:58.779Z,13.70
2018-07-10T20:40:33.432Z,13.60
2018-07-10T20:43:08.372Z,13.70
2018-07-10T20:45:47.337Z,13.70
2018-07-10T20:48:26.522Z,13.60
2018-07-10T20:50:58.277Z,13.50
2018-07-10T20:53:32.567Z,13.40
2018-07-10T20:56:04.709Z,13.30
2018-07-10T20:58:38.016Z,13.30
2018-07-10T21:01:06.130Z,13.30
2018-07-10T21:03:40.278Z,13.20
2018-07-10T21:06:16.762Z,13.20
2018-07-10T21:08:53.917Z,13.20
2018-07-10T21:11:25.897Z,13.20
2018-07-10T21:13:56.659Z,13.20
2018-07-10T21:16:31.418Z,13.10
2018-07-10T21:19:09.218Z,13.10
2018-07-10T21:21:56.457Z,13.10
2018-07-10T21:24:34.845Z,13.20
2018-07-10T21:27:08.066Z,13.30
2018-07-10T21:29:49.797Z,13.40
2018-07-10T21:32:27.094Z,13.60
2018-07-10T21:34:54.303Z,13.60
2018-07-10T21:39:34.948Z,13.50
2018-07-10T21:43:13.732Z,13.50
2018-07-10T21:49:55.551Z,13.70
2018-07-10T21:52:23.227Z,13.60
2018-07-10T21:54:50.440Z,13.60
2018-07-10T21:57:23.076Z,13.80
2018-07-10T21:59:52.296Z,13.90
2018-07-10T22:02:19.512Z,14.10
2018-07-10T22:04:47.936Z,14.20
2018-07-10T22:07:15.623Z,14.20
2018-07-10T22:09:43.362Z,14.20
2018-07-10T22:12:13.898Z,14.20
2018-07-10T22:14:41.433Z,14.00
2018-07-10T22:17:12.453Z,13.90
2018-07-10T22:19:40.851Z,13.90
2018-07-10T22:22:08.072Z,13.80
2018-07-10T22:24:35.279Z,13.70
2018-07-10T22:27:02.493Z,13.60
2018-07-10T22:29:35.488Z,13.50
2018-07-10T22:32:10.170Z,13.60
2018-07-10T22:34:39.583Z,13.60
2018-07-10T22:37:06.803Z,13.60
2018-07-10T22:39:34.010Z,13.60
2018-07-10T22:42:01.230Z,13.60
2018-07-10T22:44:30.277Z,13.50
2018-07-10T22:46:58.695Z,13.40
2018-07-10T22:49:25.907Z,13.30
2018-07-10T22:51:55.154Z,13.30
2018-07-10T22:54:22.356Z,13.20
2018-07-10T22:56:49.598Z,13.20
2018-07-10T22:59:16.837Z,13.30
2018-07-10T23:01:44.112Z,13.40
2018-07-10T23:04:11.340Z,13.50
2018-07-10T23:06:38.586Z,13.60
2018-07-10T23:09:05.930Z,13.70
2018-07-10T23:11:34.310Z,13.80
2018-07-10T23:14:01.601Z,13.80
2018-07-10T23:16:29.467Z,13.90
2018-07-10T23:18:56.726Z,13.90
2018-07-10T23:21:23.977Z,13.80
2018-07-10T23:23:51.873Z,13.90
2018-07-10T23:26:19.112Z,13.90
2018-07-10T23:28:49.968Z,13.80
2018-07-10T23:31:17.210Z,13.80
2018-07-10T23:33:47.785Z,13.80
2018-07-10T23:36:15.022Z,13.70
2018-07-10T23:38:47.122Z,13.70
2018-07-10T23:41:20.544Z,13.70
2018-07-10T23:43:47.793Z,13.60
2018-07-10T23:46:25.236Z,13.60
2018-07-10T23:48:54.713Z,13.60
2018-07-10T23:51:21.933Z,13.50
2018-07-10T23:53:50.371Z,13.40
2018-07-10T23:56:18.359Z,13.40
2018-07-10T23:58:46.237Z,13.40
